sensor_id;sensor_type;location;lat;lon;timestamp;P1;durP1;ratioP1;P2;durP2;ratioP2
53036;SDS011;38924;52.134;4.666;2023-04-23T00:00:01;100.05;;;60.70;;
53036;SDS011;38924;52.134;4.666;2023-04-23T00:02:27;96.32;;;62.08;;
53036;SDS011;38924;52.134;4.666;2023-04-23T00:04:54;99.10;;;57.28;;
53036;SDS011;38924;52.134;4.666;2023-04-23T00:07:22;107.95;;;59.70;;
53036;SDS011;38924;52.134;4.666;2023-04-23T00:09:51;99.60;;;60.65;;
53036;SDS011;38924;52.134;4.666;2023-04-23T00:12:17;103.40;;;61.03;;
53036;SDS011;38924;52.134;4.666;2023-04-23T00:14:42;101.78;;;60.55;;
53036;SDS011;38924;52.134;4.666;2023-04-23T00:17:08;103.50;;;62.13;;
53036;SDS011;38924;52.134;4.666;2023-04-23T00:19:34;110.25;;;63.85;;
53036;SDS011;38924;52.134;4.666;2023-04-23T00:22:00;105.72;;;62.63;;
53036;SDS011;38924;52.134;4.666;2023-04-23T00:24:26;109.88;;;62.63;;
53036;SDS011;38924;52.134;4.666;2023-04-23T00:26:51;110.18;;;63.25;;
53036;SDS011;38924;52.134;4.666;2023-04-23T00:29:18;109.05;;;63.22;;
53036;SDS011;38924;52.134;4.666;2023-04-23T00:31:45;109.35;;;64.82;;
53036;SDS011;38924;52.134;4.666;2023-04-23T00:34:10;103.70;;;61.28;;
53036;SDS011;38924;52.134;4.666;2023-04-23T00:36:36;104.38;;;62.15;;
53036;SDS011;38924;52.134;4.666;2023-04-23T00:39:01;103.55;;;62.03;;
53036;SDS011;38924;52.134;4.666;2023-04-23T00:41:27;100.82;;;61.30;;
53036;SDS011;38924;52.134;4.666;2023-04-23T00:43:53;106.88;;;62.25;;
53036;SDS011;38924;52.134;4.666;2023-04-23T00:46:19;95.90;;;60.75;;
53036;SDS011;38924;52.134;4.666;2023-04-23T00:48:45;107.03;;;61.17;;
53036;SDS011;38924;52.134;4.666;2023-04-23T00:51:11;111.07;;;64.55;;
53036;SDS011;38924;52.134;4.666;2023-04-23T00:53:37;105.00;;;63.17;;
53036;SDS011;38924;52.134;4.666;2023-04-23T00:56:03;99.43;;;61.53;;
53036;SDS011;38924;52.134;4.666;2023-04-23T00:58:29;106.18;;;62.60;;
53036;SDS011;38924;52.134;4.666;2023-04-23T01:00:55;108.93;;;60.72;;
53036;SDS011;38924;52.134;4.666;2023-04-23T01:03:22;115.55;;;69.13;;
53036;SDS011;38924;52.134;4.666;2023-04-23T01:05:48;110.70;;;65.32;;
53036;SDS011;38924;52.134;4.666;2023-04-23T01:08:15;114.22;;;66.50;;
53036;SDS011;38924;52.134;4.666;2023-04-23T01:10:41;117.35;;;65.90;;
53036;SDS011;38924;52.134;4.666;2023-04-23T01:13:08;124.20;;;70.15;;
53036;SDS011;38924;52.134;4.666;2023-04-23T01:15:34;118.53;;;66.28;;
53036;SDS011;38924;52.134;4.666;2023-04-23T01:17:59;114.50;;;66.25;;
53036;SDS011;38924;52.134;4.666;2023-04-23T01:20:25;112.63;;;67.18;;
53036;SDS011;38924;52.134;4.666;2023-04-23T01:22:51;123.30;;;69.22;;
53036;SDS011;38924;52.134;4.666;2023-04-23T01:25:16;116.38;;;66.93;;
53036;SDS011;38924;52.134;4.666;2023-04-23T01:27:42;114.20;;;66.90;;
53036;SDS011;38924;52.134;4.666;2023-04-23T01:30:08;110.35;;;64.70;;
53036;SDS011;38924;52.134;4.666;2023-04-23T01:32:34;116.75;;;67.95;;
53036;SDS011;38924;52.134;4.666;2023-04-23T01:35:04;116.45;;;67.28;;
53036;SDS011;38924;52.134;4.666;2023-04-23T01:37:30;116.38;;;65.25;;
53036;SDS011;38924;52.134;4.666;2023-04-23T01:39:56;105.18;;;63.47;;
53036;SDS011;38924;52.134;4.666;2023-04-23T01:42:22;114.00;;;65.90;;
53036;SDS011;38924;52.134;4.666;2023-04-23T01:44:48;109.50;;;64.57;;
53036;SDS011;38924;52.134;4.666;2023-04-23T01:47:14;118.70;;;65.40;;
53036;SDS011;38924;52.134;4.666;2023-04-23T01:49:39;106.30;;;63.63;;
53036;SDS011;38924;52.134;4.666;2023-04-23T01:52:05;107.43;;;64.28;;
53036;SDS011;38924;52.134;4.666;2023-04-23T01:54:31;109.57;;;61.80;;
53036;SDS011;38924;52.134;4.666;2023-04-23T01:56:56;114.00;;;65.82;;
53036;SDS011;38924;52.134;4.666;2023-04-23T01:59:23;102.10;;;62.25;;
53036;SDS011;38924;52.134;4.666;2023-04-23T02:01:49;102.45;;;63.20;;
53036;SDS011;38924;52.134;4.666;2023-04-23T02:04:17;101.30;;;62.58;;
53036;SDS011;38924;52.134;4.666;2023-04-23T02:06:44;105.20;;;60.30;;
53036;SDS011;38924;52.134;4.666;2023-04-23T02:09:11;96.15;;;57.33;;
53036;SDS011;38924;52.134;4.666;2023-04-23T02:11:37;94.95;;;59.75;;
53036;SDS011;38924;52.134;4.666;2023-04-23T02:14:03;98.38;;;58.60;;
53036;SDS011;38924;52.134;4.666;2023-04-23T02:16:29;91.47;;;57.63;;
53036;SDS011;38924;52.134;4.666;2023-04-23T02:18:55;93.95;;;57.50;;
53036;SDS011;38924;52.134;4.666;2023-04-23T02:21:26;93.35;;;57.40;;
53036;SDS011;38924;52.134;4.666;2023-04-23T02:23:53;94.28;;;56.47;;
53036;SDS011;38924;52.134;4.666;2023-04-23T02:26:18;88.45;;;55.42;;
53036;SDS011;38924;52.134;4.666;2023-04-23T02:28:44;85.00;;;51.58;;
53036;SDS011;38924;52.134;4.666;2023-04-23T02:31:10;79.50;;;51.35;;
53036;SDS011;38924;52.134;4.666;2023-04-23T02:33:38;80.38;;;49.80;;
53036;SDS011;38924;52.134;4.666;2023-04-23T02:36:03;80.05;;;52.53;;
53036;SDS011;38924;52.134;4.666;2023-04-23T02:38:29;76.03;;;50.55;;
53036;SDS011;38924;52.134;4.666;2023-04-23T02:40:55;77.47;;;49.67;;
53036;SDS011;38924;52.134;4.666;2023-04-23T02:43:20;68.32;;;46.33;;
53036;SDS011;38924;52.134;4.666;2023-04-23T02:45:46;68.40;;;46.17;;
53036;SDS011;38924;52.134;4.666;2023-04-23T02:48:12;67.25;;;46.05;;
53036;SDS011;38924;52.134;4.666;2023-04-23T02:50:37;63.85;;;43.50;;
53036;SDS011;38924;52.134;4.666;2023-04-23T02:53:03;62.25;;;42.63;;
53036;SDS011;38924;52.134;4.666;2023-04-23T02:55:30;61.60;;;41.15;;
53036;SDS011;38924;52.134;4.666;2023-04-23T02:57:57;64.35;;;43.13;;
53036;SDS011;38924;52.134;4.666;2023-04-23T03:00:23;61.83;;;40.92;;
53036;SDS011;38924;52.134;4.666;2023-04-23T03:02:49;64.28;;;43.22;;
53036;SDS011;38924;52.134;4.666;2023-04-23T03:05:14;63.67;;;43.03;;
53036;SDS011;38924;52.134;4.666;2023-04-23T03:07:40;55.60;;;40.05;;
53036;SDS011;38924;52.134;4.666;2023-04-23T03:10:06;62.70;;;42.47;;
53036;SDS011;38924;52.134;4.666;2023-04-23T03:12:33;57.53;;;40.20;;
53036;SDS011;38924;52.134;4.666;2023-04-23T03:14:59;59.30;;;41.67;;
53036;SDS011;38924;52.134;4.666;2023-04-23T03:17:26;56.15;;;39.97;;
53036;SDS011;38924;52.134;4.666;2023-04-23T03:19:52;54.15;;;39.53;;
53036;SDS011;38924;52.134;4.666;2023-04-23T03:22:19;62.83;;;41.10;;
53036;SDS011;38924;52.134;4.666;2023-04-23T03:24:45;51.85;;;37.80;;
53036;SDS011;38924;52.134;4.666;2023-04-23T03:27:11;54.47;;;39.00;;
53036;SDS011;38924;52.134;4.666;2023-04-23T03:29:37;56.92;;;39.60;;
53036;SDS011;38924;52.134;4.666;2023-04-23T03:32:03;54.65;;;40.10;;
53036;SDS011;38924;52.134;4.666;2023-04-23T03:34:29;54.17;;;40.72;;
53036;SDS011;38924;52.134;4.666;2023-04-23T03:36:55;52.70;;;38.72;;
53036;SDS011;38924;52.134;4.666;2023-04-23T03:39:20;55.25;;;39.20;;
53036;SDS011;38924;52.134;4.666;2023-04-23T03:41:49;55.45;;;37.10;;
53036;SDS011;38924;52.134;4.666;2023-04-23T03:44:18;50.92;;;37.30;;
53036;SDS011;38924;52.134;4.666;2023-04-23T03:46:45;47.40;;;36.90;;
53036;SDS011;38924;52.134;4.666;2023-04-23T03:49:13;46.85;;;35.78;;
53036;SDS011;38924;52.134;4.666;2023-04-23T03:51:39;52.72;;;36.80;;
53036;SDS011;38924;52.134;4.666;2023-04-23T03:54:04;50.65;;;35.88;;
53036;SDS011;38924;52.134;4.666;2023-04-23T03:57:09;48.22;;;36.10;;
53036;SDS011;38924;52.134;4.666;2023-04-23T04:00:10;54.72;;;37.25;;
53036;SDS011;38924;52.134;4.666;2023-04-23T04:02:38;47.15;;;34.75;;
53036;SDS011;38924;52.134;4.666;2023-04-23T04:05:04;46.88;;;35.78;;
53036;SDS011;38924;52.134;4.666;2023-04-23T04:07:33;45.17;;;35.47;;
53036;SDS011;38924;52.134;4.666;2023-04-23T04:10:01;45.67;;;34.95;;
53036;SDS011;38924;52.134;4.666;2023-04-23T04:12:30;46.33;;;35.80;;
53036;SDS011;38924;52.134;4.666;2023-04-23T04:14:56;47.83;;;35.28;;
53036;SDS011;38924;52.134;4.666;2023-04-23T04:17:22;46.20;;;35.75;;
53036;SDS011;38924;52.134;4.666;2023-04-23T04:19:47;43.50;;;34.50;;
53036;SDS011;38924;52.134;4.666;2023-04-23T04:22:13;47.83;;;36.10;;
53036;SDS011;38924;52.134;4.666;2023-04-23T04:24:39;52.15;;;35.38;;
53036;SDS011;38924;52.134;4.666;2023-04-23T04:27:06;44.92;;;34.03;;
53036;SDS011;38924;52.134;4.666;2023-04-23T04:29:32;46.13;;;35.33;;
53036;SDS011;38924;52.134;4.666;2023-04-23T04:31:57;48.67;;;36.22;;
53036;SDS011;38924;52.134;4.666;2023-04-23T04:34:24;49.20;;;36.03;;
53036;SDS011;38924;52.134;4.666;2023-04-23T04:36:49;48.17;;;35.35;;
53036;SDS011;38924;52.134;4.666;2023-04-23T04:39:18;46.38;;;33.08;;
53036;SDS011;38924;52.134;4.666;2023-04-23T04:41:44;46.33;;;34.80;;
53036;SDS011;38924;52.134;4.666;2023-04-23T04:44:10;46.47;;;35.35;;
53036;SDS011;38924;52.134;4.666;2023-04-23T04:46:35;49.38;;;34.40;;
53036;SDS011;38924;52.134;4.666;2023-04-23T04:49:08;45.83;;;36.78;;
53036;SDS011;38924;52.134;4.666;2023-04-23T04:51:33;46.00;;;35.20;;
53036;SDS011;38924;52.134;4.666;2023-04-23T04:53:59;43.45;;;34.30;;
53036;SDS011;38924;52.134;4.666;2023-04-23T04:56:25;43.42;;;33.88;;
53036;SDS011;38924;52.134;4.666;2023-04-23T04:58:51;42.33;;;33.50;;
53036;SDS011;38924;52.134;4.666;2023-04-23T05:01:17;44.13;;;33.83;;
53036;SDS011;38924;52.134;4.666;2023-04-23T05:03:44;45.83;;;32.97;;
53036;SDS011;38924;52.134;4.666;2023-04-23T05:06:10;44.28;;;33.05;;
53036;SDS011;38924;52.134;4.666;2023-04-23T05:08:36;51.35;;;35.88;;
53036;SDS011;38924;52.134;4.666;2023-04-23T05:11:02;42.95;;;34.33;;
53036;SDS011;38924;52.134;4.666;2023-04-23T05:13:31;42.47;;;33.33;;
53036;SDS011;38924;52.134;4.666;2023-04-23T05:15:57;47.08;;;34.63;;
53036;SDS011;38924;52.134;4.666;2023-04-23T05:18:22;45.20;;;33.70;;
53036;SDS011;38924;52.134;4.666;2023-04-23T05:20:48;43.08;;;32.35;;
53036;SDS011;38924;52.134;4.666;2023-04-23T05:23:14;45.78;;;32.78;;
53036;SDS011;38924;52.134;4.666;2023-04-23T05:25:40;38.05;;;30.80;;
53036;SDS011;38924;52.134;4.666;2023-04-23T05:28:05;42.17;;;31.35;;
53036;SDS011;38924;52.134;4.666;2023-04-23T05:30:33;40.47;;;31.83;;
53036;SDS011;38924;52.134;4.666;2023-04-23T05:32:58;36.22;;;30.23;;
53036;SDS011;38924;52.134;4.666;2023-04-23T05:35:24;41.33;;;31.38;;
53036;SDS011;38924;52.134;4.666;2023-04-23T05:37:53;40.47;;;30.45;;
53036;SDS011;38924;52.134;4.666;2023-04-23T05:40:21;36.65;;;30.17;;
53036;SDS011;38924;52.134;4.666;2023-04-23T05:42:46;39.83;;;30.60;;
53036;SDS011;38924;52.134;4.666;2023-04-23T05:45:12;34.83;;;29.98;;
53036;SDS011;38924;52.134;4.666;2023-04-23T05:47:38;37.65;;;30.42;;
53036;SDS011;38924;52.134;4.666;2023-04-23T05:50:04;37.05;;;28.13;;
53036;SDS011;38924;52.134;4.666;2023-04-23T05:52:30;37.03;;;28.75;;
53036;SDS011;38924;52.134;4.666;2023-04-23T05:54:57;37.53;;;29.65;;
53036;SDS011;38924;52.134;4.666;2023-04-23T05:57:23;35.95;;;29.33;;
53036;SDS011;38924;52.134;4.666;2023-04-23T05:59:49;32.78;;;27.73;;
53036;SDS011;38924;52.134;4.666;2023-04-23T06:02:14;33.90;;;28.02;;
53036;SDS011;38924;52.134;4.666;2023-04-23T06:04:40;34.60;;;26.20;;
53036;SDS011;38924;52.134;4.666;2023-04-23T06:07:05;32.30;;;25.55;;
53036;SDS011;38924;52.134;4.666;2023-04-23T06:09:31;31.63;;;26.23;;
53036;SDS011;38924;52.134;4.666;2023-04-23T06:11:57;32.00;;;25.55;;
53036;SDS011;38924;52.134;4.666;2023-04-23T06:14:25;31.30;;;24.08;;
53036;SDS011;38924;52.134;4.666;2023-04-23T06:16:51;33.40;;;26.08;;
53036;SDS011;38924;52.134;4.666;2023-04-23T06:19:17;27.17;;;23.23;;
53036;SDS011;38924;52.134;4.666;2023-04-23T06:21:42;28.38;;;23.58;;
53036;SDS011;38924;52.134;4.666;2023-04-23T06:24:08;27.92;;;22.55;;
53036;SDS011;38924;52.134;4.666;2023-04-23T06:26:34;27.65;;;21.83;;
53036;SDS011;38924;52.134;4.666;2023-04-23T06:29:07;27.38;;;20.80;;
53036;SDS011;38924;52.134;4.666;2023-04-23T06:31:50;23.25;;;20.50;;
53036;SDS011;38924;52.134;4.666;2023-04-23T06:34:15;26.75;;;20.27;;
53036;SDS011;38924;52.134;4.666;2023-04-23T06:36:41;32.45;;;19.60;;
53036;SDS011;38924;52.134;4.666;2023-04-23T06:39:08;23.70;;;18.50;;
53036;SDS011;38924;52.134;4.666;2023-04-23T06:41:34;23.73;;;18.58;;
53036;SDS011;38924;52.134;4.666;2023-04-23T06:44:19;25.45;;;18.35;;
53036;SDS011;38924;52.134;4.666;2023-04-23T06:46:51;25.17;;;18.65;;
53036;SDS011;38924;52.134;4.666;2023-04-23T06:49:17;23.05;;;17.25;;
53036;SDS011;38924;52.134;4.666;2023-04-23T06:51:42;24.17;;;18.52;;
53036;SDS011;38924;52.134;4.666;2023-04-23T06:54:08;23.25;;;17.52;;
53036;SDS011;38924;52.134;4.666;2023-04-23T06:56:34;22.02;;;16.30;;
53036;SDS011;38924;52.134;4.666;2023-04-23T06:59:00;21.52;;;15.80;;
53036;SDS011;38924;52.134;4.666;2023-04-23T07:01:25;19.00;;;15.75;;
53036;SDS011;38924;52.134;4.666;2023-04-23T07:03:51;18.70;;;14.32;;
53036;SDS011;38924;52.134;4.666;2023-04-23T07:06:20;22.25;;;15.13;;
53036;SDS011;38924;52.134;4.666;2023-04-23T07:08:45;19.63;;;13.95;;
53036;SDS011;38924;52.134;4.666;2023-04-23T07:11:11;23.40;;;14.05;;
53036;SDS011;38924;52.134;4.666;2023-04-23T07:13:37;16.00;;;12.90;;
53036;SDS011;38924;52.134;4.666;2023-04-23T07:16:03;25.33;;;14.40;;
53036;SDS011;38924;52.134;4.666;2023-04-23T07:18:31;19.10;;;12.60;;
53036;SDS011;38924;52.134;4.666;2023-04-23T07:20:57;17.85;;;12.27;;
53036;SDS011;38924;52.134;4.666;2023-04-23T07:23:23;17.92;;;12.60;;
53036;SDS011;38924;52.134;4.666;2023-04-23T07:25:48;24.63;;;13.38;;
53036;SDS011;38924;52.134;4.666;2023-04-23T07:28:14;19.70;;;12.45;;
53036;SDS011;38924;52.134;4.666;2023-04-23T07:30:40;16.00;;;10.95;;
53036;SDS011;38924;52.134;4.666;2023-04-23T07:33:05;15.30;;;11.77;;
53036;SDS011;38924;52.134;4.666;2023-04-23T07:35:31;13.10;;;10.98;;
53036;SDS011;38924;52.134;4.666;2023-04-23T07:37:57;20.52;;;10.95;;
53036;SDS011;38924;52.134;4.666;2023-04-23T07:40:23;17.00;;;10.43;;
53036;SDS011;38924;52.134;4.666;2023-04-23T07:42:49;13.05;;;9.10;;
53036;SDS011;38924;52.134;4.666;2023-04-23T07:45:15;12.35;;;9.15;;
53036;SDS011;38924;52.134;4.666;2023-04-23T07:47:41;15.77;;;9.48;;
53036;SDS011;38924;52.134;4.666;2023-04-23T07:50:06;17.25;;;9.07;;
53036;SDS011;38924;52.134;4.666;2023-04-23T07:52:32;14.25;;;7.78;;
53036;SDS011;38924;52.134;4.666;2023-04-23T07:54:58;12.60;;;7.63;;
53036;SDS011;38924;52.134;4.666;2023-04-23T07:57:23;19.70;;;8.68;;
53036;SDS011;38924;52.134;4.666;2023-04-23T07:59:49;16.10;;;9.10;;
53036;SDS011;38924;52.134;4.666;2023-04-23T08:02:15;16.38;;;8.10;;
53036;SDS011;38924;52.134;4.666;2023-04-23T08:04:42;14.00;;;8.00;;
53036;SDS011;38924;52.134;4.666;2023-04-23T08:07:08;13.60;;;7.95;;
53036;SDS011;38924;52.134;4.666;2023-04-23T08:09:33;18.55;;;8.07;;
53036;SDS011;38924;52.134;4.666;2023-04-23T08:11:59;12.60;;;8.90;;
53036;SDS011;38924;52.134;4.666;2023-04-23T08:14:26;12.63;;;8.35;;
53036;SDS011;38924;52.134;4.666;2023-04-23T08:16:52;14.55;;;7.05;;
53036;SDS011;38924;52.134;4.666;2023-04-23T08:19:17;15.32;;;7.45;;
53036;SDS011;38924;52.134;4.666;2023-04-23T08:21:43;15.55;;;7.45;;
53036;SDS011;38924;52.134;4.666;2023-04-23T08:24:08;14.23;;;7.05;;
53036;SDS011;38924;52.134;4.666;2023-04-23T08:26:34;13.13;;;7.35;;
53036;SDS011;38924;52.134;4.666;2023-04-23T08:29:00;14.13;;;6.97;;
53036;SDS011;38924;52.134;4.666;2023-04-23T08:31:26;10.30;;;6.60;;
53036;SDS011;38924;52.134;4.666;2023-04-23T08:33:51;15.52;;;6.38;;
53036;SDS011;38924;52.134;4.666;2023-04-23T08:36:17;15.65;;;7.43;;
53036;SDS011;38924;52.134;4.666;2023-04-23T08:38:43;16.38;;;8.55;;
53036;SDS011;38924;52.134;4.666;2023-04-23T08:41:09;11.43;;;7.47;;
53036;SDS011;38924;52.134;4.666;2023-04-23T08:43:37;16.42;;;6.75;;
53036;SDS011;38924;52.134;4.666;2023-04-23T08:46:05;10.63;;;6.28;;
53036;SDS011;38924;52.134;4.666;2023-04-23T08:48:35;14.27;;;7.13;;
53036;SDS011;38924;52.134;4.666;2023-04-23T08:51:01;10.52;;;6.47;;
53036;SDS011;38924;52.134;4.666;2023-04-23T08:53:28;11.00;;;6.15;;
53036;SDS011;38924;52.134;4.666;2023-04-23T08:55:57;13.20;;;7.07;;
53036;SDS011;38924;52.134;4.666;2023-04-23T08:58:23;17.00;;;7.53;;
53036;SDS011;38924;52.134;4.666;2023-04-23T09:00:52;15.07;;;7.15;;
53036;SDS011;38924;52.134;4.666;2023-04-23T09:03:19;16.95;;;7.57;;
53036;SDS011;38924;52.134;4.666;2023-04-23T09:05:45;11.20;;;6.68;;
53036;SDS011;38924;52.134;4.666;2023-04-23T09:08:14;12.60;;;6.80;;
53036;SDS011;38924;52.134;4.666;2023-04-23T09:10:40;15.77;;;6.30;;
53036;SDS011;38924;52.134;4.666;2023-04-23T09:13:11;16.08;;;6.65;;
53036;SDS011;38924;52.134;4.666;2023-04-23T09:15:36;10.38;;;6.60;;
53036;SDS011;38924;52.134;4.666;2023-04-23T09:18:08;13.05;;;6.18;;
53036;SDS011;38924;52.134;4.666;2023-04-23T09:20:33;13.95;;;6.22;;
53036;SDS011;38924;52.134;4.666;2023-04-23T09:22:59;18.48;;;8.65;;
53036;SDS011;38924;52.134;4.666;2023-04-23T09:25:25;66.35;;;32.35;;
53036;SDS011;38924;52.134;4.666;2023-04-23T09:27:51;16.27;;;6.25;;
53036;SDS011;38924;52.134;4.666;2023-04-23T09:30:18;13.50;;;5.72;;
53036;SDS011;38924;52.134;4.666;2023-04-23T09:32:44;19.83;;;5.50;;
53036;SDS011;38924;52.134;4.666;2023-04-23T09:35:11;14.40;;;4.72;;
53036;SDS011;38924;52.134;4.666;2023-04-23T09:37:40;10.45;;;5.40;;
53036;SDS011;38924;52.134;4.666;2023-04-23T09:40:06;14.88;;;5.65;;
53036;SDS011;38924;52.134;4.666;2023-04-23T09:42:35;12.93;;;6.20;;
53036;SDS011;38924;52.134;4.666;2023-04-23T09:45:05;10.85;;;5.00;;
53036;SDS011;38924;52.134;4.666;2023-04-23T09:47:37;15.30;;;5.32;;
53036;SDS011;38924;52.134;4.666;2023-04-23T09:50:03;12.73;;;6.13;;
53036;SDS011;38924;52.134;4.666;2023-04-23T09:52:30;12.38;;;4.78;;
53036;SDS011;38924;52.134;4.666;2023-04-23T09:54:56;15.77;;;5.82;;
53036;SDS011;38924;52.134;4.666;2023-04-23T09:57:25;19.10;;;5.00;;
53036;SDS011;38924;52.134;4.666;2023-04-23T09:59:50;12.05;;;4.80;;
53036;SDS011;38924;52.134;4.666;2023-04-23T10:02:16;14.25;;;4.82;;
53036;SDS011;38924;52.134;4.666;2023-04-23T10:04:43;12.20;;;5.40;;
53036;SDS011;38924;52.134;4.666;2023-04-23T10:07:08;10.77;;;5.20;;
53036;SDS011;38924;52.134;4.666;2023-04-23T10:09:39;13.27;;;5.78;;
53036;SDS011;38924;52.134;4.666;2023-04-23T10:12:06;10.95;;;5.35;;
53036;SDS011;38924;52.134;4.666;2023-04-23T10:14:35;13.70;;;6.00;;
53036;SDS011;38924;52.134;4.666;2023-04-23T10:17:03;14.77;;;5.88;;
53036;SDS011;38924;52.134;4.666;2023-04-23T10:19:30;12.77;;;5.10;;
53036;SDS011;38924;52.134;4.666;2023-04-23T10:21:57;13.40;;;4.97;;
53036;SDS011;38924;52.134;4.666;2023-04-23T10:24:25;16.73;;;6.63;;
53036;SDS011;38924;52.134;4.666;2023-04-23T10:26:55;9.68;;;5.50;;
53036;SDS011;38924;52.134;4.666;2023-04-23T10:29:25;12.35;;;5.75;;
53036;SDS011;38924;52.134;4.666;2023-04-23T10:31:51;12.38;;;5.63;;
53036;SDS011;38924;52.134;4.666;2023-04-23T10:34:17;12.32;;;5.55;;
53036;SDS011;38924;52.134;4.666;2023-04-23T10:36:43;12.23;;;4.80;;
53036;SDS011;38924;52.134;4.666;2023-04-23T10:39:09;10.25;;;4.85;;
53036;SDS011;38924;52.134;4.666;2023-04-23T10:41:38;12.38;;;5.38;;
53036;SDS011;38924;52.134;4.666;2023-04-23T10:44:05;17.08;;;5.07;;
53036;SDS011;38924;52.134;4.666;2023-04-23T10:46:32;15.65;;;4.50;;
53036;SDS011;38924;52.134;4.666;2023-04-23T10:49:31;14.70;;;5.95;;
53036;SDS011;38924;52.134;4.666;2023-04-23T10:54:28;15.40;;;4.38;;
53036;SDS011;38924;52.134;4.666;2023-04-23T10:56:58;11.80;;;4.22;;
53036;SDS011;38924;52.134;4.666;2023-04-23T10:59:24;9.75;;;4.10;;
53036;SDS011;38924;52.134;4.666;2023-04-23T11:01:51;12.05;;;3.88;;
53036;SDS011;38924;52.134;4.666;2023-04-23T11:04:20;12.25;;;4.22;;
53036;SDS011;38924;52.134;4.666;2023-04-23T11:12:00;9.65;;;3.60;;
53036;SDS011;38924;52.134;4.666;2023-04-23T11:14:36;9.55;;;3.47;;
53036;SDS011;38924;52.134;4.666;2023-04-23T11:17:02;11.88;;;3.67;;
53036;SDS011;38924;52.134;4.666;2023-04-23T11:19:28;11.20;;;4.13;;
53036;SDS011;38924;52.134;4.666;2023-04-23T11:21:59;12.18;;;3.80;;
53036;SDS011;38924;52.134;4.666;2023-04-23T11:24:26;6.53;;;3.45;;
53036;SDS011;38924;52.134;4.666;2023-04-23T11:26:52;14.38;;;3.33;;
53036;SDS011;38924;52.134;4.666;2023-04-23T11:29:22;9.15;;;3.45;;
53036;SDS011;38924;52.134;4.666;2023-04-23T11:31:48;10.15;;;4.10;;
53036;SDS011;38924;52.134;4.666;2023-04-23T11:34:15;14.30;;;3.75;;
53036;SDS011;38924;52.134;4.666;2023-04-23T11:36:41;9.07;;;3.28;;
53036;SDS011;38924;52.134;4.666;2023-04-23T11:39:07;9.05;;;3.13;;
53036;SDS011;38924;52.134;4.666;2023-04-23T11:41:35;9.02;;;3.08;;
53036;SDS011;38924;52.134;4.666;2023-04-23T11:44:01;9.07;;;3.33;;
53036;SDS011;38924;52.134;4.666;2023-04-23T11:46:26;10.68;;;2.97;;
53036;SDS011;38924;52.134;4.666;2023-04-23T11:48:52;14.18;;;3.60;;
53036;SDS011;38924;52.134;4.666;2023-04-23T11:51:23;9.02;;;3.10;;
53036;SDS011;38924;52.134;4.666;2023-04-23T11:53:49;12.20;;;4.05;;
53036;SDS011;38924;52.134;4.666;2023-04-23T11:56:15;10.95;;;3.25;;
53036;SDS011;38924;52.134;4.666;2023-04-23T11:58:41;11.85;;;2.97;;
53036;SDS011;38924;52.134;4.666;2023-04-23T12:01:06;11.57;;;3.72;;
53036;SDS011;38924;52.134;4.666;2023-04-23T12:03:35;8.25;;;2.90;;
53036;SDS011;38924;52.134;4.666;2023-04-23T12:06:02;11.73;;;3.53;;
53036;SDS011;38924;52.134;4.666;2023-04-23T12:08:30;9.80;;;3.17;;
53036;SDS011;38924;52.134;4.666;2023-04-23T12:11:00;9.32;;;3.50;;
53036;SDS011;38924;52.134;4.666;2023-04-23T12:13:30;16.30;;;3.88;;
53036;SDS011;38924;52.134;4.666;2023-04-23T12:16:01;7.57;;;3.25;;
53036;SDS011;38924;52.134;4.666;2023-04-23T12:18:28;7.68;;;2.97;;
53036;SDS011;38924;52.134;4.666;2023-04-23T12:20:55;7.20;;;2.90;;
53036;SDS011;38924;52.134;4.666;2023-04-23T12:23:25;7.13;;;3.00;;
53036;SDS011;38924;52.134;4.666;2023-04-23T12:25:52;8.27;;;4.22;;
53036;SDS011;38924;52.134;4.666;2023-04-23T12:28:21;7.10;;;3.15;;
53036;SDS011;38924;52.134;4.666;2023-04-23T12:30:47;14.05;;;3.10;;
53036;SDS011;38924;52.134;4.666;2023-04-23T12:33:13;12.45;;;2.88;;
53036;SDS011;38924;52.134;4.666;2023-04-23T12:35:39;13.82;;;3.92;;
53036;SDS011;38924;52.134;4.666;2023-04-23T12:38:05;7.25;;;3.33;;
53036;SDS011;38924;52.134;4.666;2023-04-23T12:40:31;10.07;;;2.75;;
53036;SDS011;38924;52.134;4.666;2023-04-23T12:42:57;8.35;;;2.88;;
53036;SDS011;38924;52.134;4.666;2023-04-23T12:45:23;6.55;;;2.97;;
53036;SDS011;38924;52.134;4.666;2023-04-23T12:47:48;5.30;;;2.60;;
53036;SDS011;38924;52.134;4.666;2023-04-23T12:50:14;9.60;;;3.08;;
53036;SDS011;38924;52.134;4.666;2023-04-23T12:52:41;9.43;;;3.22;;
53036;SDS011;38924;52.134;4.666;2023-04-23T12:55:06;7.50;;;2.80;;
53036;SDS011;38924;52.134;4.666;2023-04-23T12:57:32;4.55;;;2.70;;
53036;SDS011;38924;52.134;4.666;2023-04-23T12:59:58;7.90;;;2.85;;
53036;SDS011;38924;52.134;4.666;2023-04-23T13:02:26;4.80;;;2.38;;
53036;SDS011;38924;52.134;4.666;2023-04-23T13:04:52;8.88;;;2.83;;
53036;SDS011;38924;52.134;4.666;2023-04-23T13:07:23;6.38;;;2.65;;
53036;SDS011;38924;52.134;4.666;2023-04-23T13:09:49;7.15;;;2.58;;
53036;SDS011;38924;52.134;4.666;2023-04-23T13:12:15;8.27;;;2.63;;
53036;SDS011;38924;52.134;4.666;2023-04-23T13:14:43;8.20;;;2.95;;
53036;SDS011;38924;52.134;4.666;2023-04-23T13:17:09;9.30;;;3.53;;
53036;SDS011;38924;52.134;4.666;2023-04-23T13:19:34;5.53;;;2.50;;
53036;SDS011;38924;52.134;4.666;2023-04-23T13:22:02;8.10;;;3.33;;
53036;SDS011;38924;52.134;4.666;2023-04-23T13:24:29;6.78;;;3.00;;
53036;SDS011;38924;52.134;4.666;2023-04-23T13:26:54;11.35;;;2.75;;
53036;SDS011;38924;52.134;4.666;2023-04-23T13:29:22;10.00;;;3.40;;
53036;SDS011;38924;52.134;4.666;2023-04-23T13:31:48;13.23;;;3.58;;
53036;SDS011;38924;52.134;4.666;2023-04-23T13:34:14;6.13;;;2.40;;
53036;SDS011;38924;52.134;4.666;2023-04-23T13:36:39;9.15;;;3.00;;
53036;SDS011;38924;52.134;4.666;2023-04-23T13:39:08;11.88;;;3.05;;
53036;SDS011;38924;52.134;4.666;2023-04-23T13:41:34;6.97;;;2.85;;
53036;SDS011;38924;52.134;4.666;2023-04-23T13:44:00;7.15;;;2.78;;
53036;SDS011;38924;52.134;4.666;2023-04-23T13:46:25;7.95;;;3.70;;
53036;SDS011;38924;52.134;4.666;2023-04-23T13:48:54;9.45;;;5.03;;
53036;SDS011;38924;52.134;4.666;2023-04-23T13:51:20;6.50;;;4.32;;
53036;SDS011;38924;52.134;4.666;2023-04-23T13:53:46;10.57;;;5.13;;
53036;SDS011;38924;52.134;4.666;2023-04-23T13:56:12;10.80;;;4.32;;
53036;SDS011;38924;52.134;4.666;2023-04-23T13:58:37;10.32;;;4.32;;
53036;SDS011;38924;52.134;4.666;2023-04-23T14:01:07;6.63;;;4.00;;
53036;SDS011;38924;52.134;4.666;2023-04-23T14:03:33;13.23;;;4.72;;
53036;SDS011;38924;52.134;4.666;2023-04-23T14:05:58;9.85;;;3.80;;
53036;SDS011;38924;52.134;4.666;2023-04-23T14:08:24;11.20;;;5.63;;
53036;SDS011;38924;52.134;4.666;2023-04-23T14:10:50;11.02;;;4.63;;
53036;SDS011;38924;52.134;4.666;2023-04-23T14:13:15;10.30;;;4.43;;
53036;SDS011;38924;52.134;4.666;2023-04-23T14:15:44;8.18;;;4.78;;
53036;SDS011;38924;52.134;4.666;2023-04-23T14:18:09;9.27;;;4.53;;
53036;SDS011;38924;52.134;4.666;2023-04-23T14:20:35;14.13;;;4.85;;
53036;SDS011;38924;52.134;4.666;2023-04-23T14:23:42;9.05;;;4.32;;
53036;SDS011;38924;52.134;4.666;2023-04-23T14:25:56;11.60;;;4.55;;
53036;SDS011;38924;52.134;4.666;2023-04-23T14:28:26;11.07;;;4.45;;
53036;SDS011;38924;52.134;4.666;2023-04-23T14:30:55;12.40;;;5.10;;
53036;SDS011;38924;52.134;4.666;2023-04-23T14:33:21;10.40;;;4.35;;